sensor_id;sensor_type;location;lat;lon;timestamp;P1;durP1;ratioP1;P2;durP2;ratioP2
18159;SDS011;9205;52.032;4.314;2023-04-03T00:00:54;4.30;;;0.90;;
18159;SDS011;9205;52.032;4.314;2023-04-03T00:03:22;1.37;;;0.90;;
18159;SDS011;9205;52.032;4.314;2023-04-03T00:05:51;2.77;;;1.00;;
18159;SDS011;9205;52.032;4.314;2023-04-03T00:08:18;3.10;;;0.90;;
18159;SDS011;9205;52.032;4.314;2023-04-03T00:10:46;1.20;;;0.97;;
18159;SDS011;9205;52.032;4.314;2023-04-03T00:13:14;1.60;;;0.93;;
18159;SDS011;9205;52.032;4.314;2023-04-03T00:15:41;1.90;;;0.90;;
18159;SDS011;9205;52.032;4.314;2023-04-03T00:18:09;2.43;;;1.10;;
18159;SDS011;9205;52.032;4.314;2023-04-03T00:20:36;2.20;;;0.93;;
18159;SDS011;9205;52.032;4.314;2023-04-03T00:23:05;3.20;;;0.90;;
18159;SDS011;9205;52.032;4.314;2023-04-03T00:25:32;1.53;;;1.00;;
18159;SDS011;9205;52.032;4.314;2023-04-03T00:28:01;1.70;;;1.13;;
18159;SDS011;9205;52.032;4.314;2023-04-03T00:30:29;1.13;;;0.80;;
18159;SDS011;9205;52.032;4.314;2023-04-03T00:32:57;0.97;;;0.90;;
18159;SDS011;9205;52.032;4.314;2023-04-03T00:35:25;1.93;;;1.17;;
18159;SDS011;9205;52.032;4.314;2023-04-03T00:37:54;1.73;;;1.00;;
18159;SDS011;9205;52.032;4.314;2023-04-03T00:40:24;2.90;;;1.03;;
18159;SDS011;9205;52.032;4.314;2023-04-03T00:42:55;1.37;;;1.10;;
18159;SDS011;9205;52.032;4.314;2023-04-03T00:45:31;1.13;;;0.90;;
18159;SDS011;9205;52.032;4.314;2023-04-03T00:48:02;1.20;;;1.10;;
18159;SDS011;9205;52.032;4.314;2023-04-03T00:50:34;1.97;;;1.03;;
18159;SDS011;9205;52.032;4.314;2023-04-03T00:53:06;1.67;;;0.90;;
18159;SDS011;9205;52.032;4.314;2023-04-03T00:55:40;1.37;;;0.97;;
18159;SDS011;9205;52.032;4.314;2023-04-03T00:58:10;2.40;;;1.00;;
18159;SDS011;9205;52.032;4.314;2023-04-03T01:00:39;1.43;;;1.00;;
18159;SDS011;9205;52.032;4.314;2023-04-03T01:03:12;1.57;;;1.00;;
18159;SDS011;9205;52.032;4.314;2023-04-03T01:05:40;1.03;;;0.93;;
18159;SDS011;9205;52.032;4.314;2023-04-03T01:08:07;1.30;;;1.00;;
18159;SDS011;9205;52.032;4.314;2023-04-03T01:10:35;2.70;;;1.07;;
18159;SDS011;9205;52.032;4.314;2023-04-03T01:13:07;4.27;;;1.20;;
18159;SDS011;9205;52.032;4.314;2023-04-03T01:15:51;2.03;;;1.10;;
18159;SDS011;9205;52.032;4.314;2023-04-03T01:18:18;1.53;;;1.10;;
18159;SDS011;9205;52.032;4.314;2023-04-03T01:20:55;1.00;;;0.80;;
18159;SDS011;9205;52.032;4.314;2023-04-03T01:24:12;1.77;;;1.00;;
18159;SDS011;9205;52.032;4.314;2023-04-03T01:26:54;2.73;;;1.20;;
18159;SDS011;9205;52.032;4.314;2023-04-03T01:29:23;2.27;;;1.07;;
18159;SDS011;9205;52.032;4.314;2023-04-03T01:31:53;2.33;;;1.20;;
18159;SDS011;9205;52.032;4.314;2023-04-03T01:34:23;3.10;;;1.00;;
18159;SDS011;9205;52.032;4.314;2023-04-03T01:36:52;2.50;;;1.30;;
18159;SDS011;9205;52.032;4.314;2023-04-03T01:39:20;1.53;;;1.20;;
18159;SDS011;9205;52.032;4.314;2023-04-03T01:41:49;1.50;;;1.20;;
18159;SDS011;9205;52.032;4.314;2023-04-03T01:44:23;2.87;;;1.00;;
18159;SDS011;9205;52.032;4.314;2023-04-03T01:46:53;2.63;;;1.20;;
18159;SDS011;9205;52.032;4.314;2023-04-03T01:49:21;2.03;;;1.10;;
18159;SDS011;9205;52.032;4.314;2023-04-03T01:51:48;1.70;;;1.20;;
18159;SDS011;9205;52.032;4.314;2023-04-03T01:54:16;5.30;;;1.43;;
18159;SDS011;9205;52.032;4.314;2023-04-03T01:56:43;3.17;;;1.23;;
18159;SDS011;9205;52.032;4.314;2023-04-03T01:59:10;3.13;;;1.30;;
18159;SDS011;9205;52.032;4.314;2023-04-03T02:01:37;1.00;;;0.90;;
18159;SDS011;9205;52.032;4.314;2023-04-03T02:04:06;1.70;;;1.23;;
18159;SDS011;9205;52.032;4.314;2023-04-03T02:06:33;1.50;;;1.00;;
18159;SDS011;9205;52.032;4.314;2023-04-03T02:09:01;1.60;;;1.20;;
18159;SDS011;9205;52.032;4.314;2023-04-03T02:11:29;1.40;;;1.13;;
18159;SDS011;9205;52.032;4.314;2023-04-03T02:13:57;2.77;;;1.27;;
18159;SDS011;9205;52.032;4.314;2023-04-03T02:16:24;1.60;;;1.20;;
18159;SDS011;9205;52.032;4.314;2023-04-03T02:18:51;1.10;;;1.00;;
18159;SDS011;9205;52.032;4.314;2023-04-03T02:21:19;2.37;;;1.20;;
18159;SDS011;9205;52.032;4.314;2023-04-03T02:23:47;4.93;;;1.00;;
18159;SDS011;9205;52.032;4.314;2023-04-03T02:26:14;1.70;;;1.30;;
18159;SDS011;9205;52.032;4.314;2023-04-03T02:28:44;3.97;;;1.23;;
18159;SDS011;9205;52.032;4.314;2023-04-03T02:31:11;1.37;;;1.23;;
18159;SDS011;9205;52.032;4.314;2023-04-03T02:33:41;1.50;;;1.03;;
18159;SDS011;9205;52.032;4.314;2023-04-03T02:36:11;1.50;;;1.10;;
18159;SDS011;9205;52.032;4.314;2023-04-03T02:38:43;3.07;;;1.40;;
18159;SDS011;9205;52.032;4.314;2023-04-03T02:41:11;1.37;;;1.00;;
18159;SDS011;9205;52.032;4.314;2023-04-03T02:43:39;3.50;;;1.23;;
18159;SDS011;9205;52.032;4.314;2023-04-03T02:46:06;4.43;;;1.20;;
18159;SDS011;9205;52.032;4.314;2023-04-03T02:48:34;1.60;;;1.20;;
18159;SDS011;9205;52.032;4.314;2023-04-03T02:51:02;3.93;;;1.20;;
18159;SDS011;9205;52.032;4.314;2023-04-03T02:53:30;1.50;;;1.10;;
18159;SDS011;9205;52.032;4.314;2023-04-03T02:56:03;2.13;;;1.17;;
18159;SDS011;9205;52.032;4.314;2023-04-03T02:58:31;2.03;;;1.17;;
18159;SDS011;9205;52.032;4.314;2023-04-03T03:00:59;1.40;;;1.10;;
18159;SDS011;9205;52.032;4.314;2023-04-03T03:03:26;3.73;;;1.50;;
18159;SDS011;9205;52.032;4.314;2023-04-03T03:06:00;1.80;;;1.37;;
18159;SDS011;9205;52.032;4.314;2023-04-03T03:08:29;2.13;;;1.33;;
18159;SDS011;9205;52.032;4.314;2023-04-03T03:10:57;1.70;;;1.30;;
18159;SDS011;9205;52.032;4.314;2023-04-03T03:13:26;1.83;;;1.37;;
18159;SDS011;9205;52.032;4.314;2023-04-03T03:15:53;1.23;;;1.10;;
18159;SDS011;9205;52.032;4.314;2023-04-03T03:18:20;2.47;;;1.40;;
18159;SDS011;9205;52.032;4.314;2023-04-03T03:20:50;2.67;;;1.30;;
18159;SDS011;9205;52.032;4.314;2023-04-03T03:23:19;1.63;;;1.00;;
18159;SDS011;9205;52.032;4.314;2023-04-03T03:25:48;1.80;;;1.10;;
18159;SDS011;9205;52.032;4.314;2023-04-03T03:28:15;1.13;;;1.03;;
18159;SDS011;9205;52.032;4.314;2023-04-03T03:30:44;2.13;;;1.20;;
18159;SDS011;9205;52.032;4.314;2023-04-03T03:33:11;1.50;;;1.10;;
18159;SDS011;9205;52.032;4.314;2023-04-03T03:35:38;3.77;;;1.20;;
18159;SDS011;9205;52.032;4.314;2023-04-03T03:38:07;2.87;;;1.20;;
18159;SDS011;9205;52.032;4.314;2023-04-03T03:40:34;2.53;;;1.50;;
18159;SDS011;9205;52.032;4.314;2023-04-03T03:43:02;1.97;;;1.20;;
18159;SDS011;9205;52.032;4.314;2023-04-03T03:45:30;1.80;;;1.27;;
18159;SDS011;9205;52.032;4.314;2023-04-03T03:47:58;1.20;;;1.10;;
18159;SDS011;9205;52.032;4.314;2023-04-03T03:50:26;2.10;;;1.20;;
18159;SDS011;9205;52.032;4.314;2023-04-03T03:52:53;1.43;;;1.17;;
18159;SDS011;9205;52.032;4.314;2023-04-03T03:55:20;3.53;;;1.30;;
18159;SDS011;9205;52.032;4.314;2023-04-03T03:57:51;4.17;;;1.40;;
18159;SDS011;9205;52.032;4.314;2023-04-03T04:00:19;1.53;;;1.27;;
18159;SDS011;9205;52.032;4.314;2023-04-03T04:02:52;2.23;;;1.23;;
18159;SDS011;9205;52.032;4.314;2023-04-03T04:05:23;1.30;;;1.10;;
18159;SDS011;9205;52.032;4.314;2023-04-03T04:07:52;2.40;;;1.40;;
18159;SDS011;9205;52.032;4.314;2023-04-03T04:10:19;1.80;;;1.30;;
18159;SDS011;9205;52.032;4.314;2023-04-03T04:12:47;1.50;;;1.20;;
18159;SDS011;9205;52.032;4.314;2023-04-03T04:15:18;1.53;;;1.30;;
18159;SDS011;9205;52.032;4.314;2023-04-03T04:17:47;1.97;;;1.50;;
18159;SDS011;9205;52.032;4.314;2023-04-03T04:20:15;2.00;;;1.30;;
18159;SDS011;9205;52.032;4.314;2023-04-03T04:22:43;2.13;;;1.47;;
18159;SDS011;9205;52.032;4.314;2023-04-03T04:25:11;2.60;;;1.50;;
18159;SDS011;9205;52.032;4.314;2023-04-03T04:27:39;1.97;;;1.50;;
18159;SDS011;9205;52.032;4.314;2023-04-03T04:30:07;3.30;;;1.70;;
18159;SDS011;9205;52.032;4.314;2023-04-03T04:32:36;1.60;;;1.20;;
18159;SDS011;9205;52.032;4.314;2023-04-03T04:35:04;2.13;;;1.40;;
18159;SDS011;9205;52.032;4.314;2023-04-03T04:37:34;1.40;;;1.30;;
18159;SDS011;9205;52.032;4.314;2023-04-03T04:40:03;1.67;;;1.10;;
18159;SDS011;9205;52.032;4.314;2023-04-03T04:42:32;1.30;;;1.20;;
18159;SDS011;9205;52.032;4.314;2023-04-03T04:45:00;11.53;;;1.90;;
18159;SDS011;9205;52.032;4.314;2023-04-03T04:47:28;2.50;;;1.37;;
18159;SDS011;9205;52.032;4.314;2023-04-03T04:49:55;1.90;;;1.20;;
18159;SDS011;9205;52.032;4.314;2023-04-03T04:52:23;2.27;;;1.40;;
18159;SDS011;9205;52.032;4.314;2023-04-03T04:54:50;1.57;;;1.23;;
18159;SDS011;9205;52.032;4.314;2023-04-03T04:57:19;5.23;;;2.03;;
18159;SDS011;9205;52.032;4.314;2023-04-03T04:59:46;2.33;;;1.40;;
18159;SDS011;9205;52.032;4.314;2023-04-03T05:02:13;4.13;;;1.33;;
18159;SDS011;9205;52.032;4.314;2023-04-03T05:04:42;3.07;;;1.50;;
18159;SDS011;9205;52.032;4.314;2023-04-03T05:07:15;4.73;;;1.37;;
18159;SDS011;9205;52.032;4.314;2023-04-03T05:09:43;1.60;;;1.30;;
18159;SDS011;9205;52.032;4.314;2023-04-03T05:12:12;2.20;;;1.53;;
18159;SDS011;9205;52.032;4.314;2023-04-03T05:14:47;1.50;;;1.20;;
18159;SDS011;9205;52.032;4.314;2023-04-03T05:17:15;7.33;;;2.00;;
18159;SDS011;9205;52.032;4.314;2023-04-03T05:19:48;2.20;;;1.30;;
18159;SDS011;9205;52.032;4.314;2023-04-03T05:22:16;4.97;;;1.40;;
18159;SDS011;9205;52.032;4.314;2023-04-03T05:24:44;3.07;;;1.30;;
18159;SDS011;9205;52.032;4.314;2023-04-03T05:27:11;3.03;;;1.80;;
18159;SDS011;9205;52.032;4.314;2023-04-03T05:29:42;4.50;;;1.60;;
18159;SDS011;9205;52.032;4.314;2023-04-03T05:32:14;2.23;;;1.90;;
18159;SDS011;9205;52.032;4.314;2023-04-03T05:34:43;2.27;;;1.50;;
18159;SDS011;9205;52.032;4.314;2023-04-03T05:37:10;5.70;;;1.70;;
18159;SDS011;9205;52.032;4.314;2023-04-03T05:39:39;2.73;;;1.40;;
18159;SDS011;9205;52.032;4.314;2023-04-03T05:42:07;2.03;;;1.50;;
18159;SDS011;9205;52.032;4.314;2023-04-03T05:44:36;3.23;;;1.70;;
18159;SDS011;9205;52.032;4.314;2023-04-03T05:47:04;1.67;;;1.57;;
18159;SDS011;9205;52.032;4.314;2023-04-03T05:49:33;2.40;;;1.60;;
18159;SDS011;9205;52.032;4.314;2023-04-03T05:52:06;2.20;;;1.50;;
18159;SDS011;9205;52.032;4.314;2023-04-03T05:54:44;1.97;;;1.50;;
18159;SDS011;9205;52.032;4.314;2023-04-03T05:57:17;2.70;;;1.40;;
18159;SDS011;9205;52.032;4.314;2023-04-03T05:59:45;2.70;;;1.70;;
18159;SDS011;9205;52.032;4.314;2023-04-03T06:02:16;2.73;;;1.93;;
18159;SDS011;9205;52.032;4.314;2023-04-03T06:04:48;2.20;;;1.40;;
18159;SDS011;9205;52.032;4.314;2023-04-03T06:07:16;5.77;;;2.20;;
18159;SDS011;9205;52.032;4.314;2023-04-03T06:09:48;2.20;;;1.63;;
18159;SDS011;9205;52.032;4.314;2023-04-03T06:12:17;5.27;;;1.60;;
18159;SDS011;9205;52.032;4.314;2023-04-03T06:14:46;3.03;;;1.70;;
18159;SDS011;9205;52.032;4.314;2023-04-03T06:17:13;3.53;;;2.30;;
18159;SDS011;9205;52.032;4.314;2023-04-03T06:19:43;3.93;;;1.40;;
18159;SDS011;9205;52.032;4.314;2023-04-03T06:22:12;5.07;;;2.10;;
18159;SDS011;9205;52.032;4.314;2023-04-03T06:24:40;2.40;;;1.43;;
18159;SDS011;9205;52.032;4.314;2023-04-03T06:27:09;3.37;;;1.80;;
18159;SDS011;9205;52.032;4.314;2023-04-03T06:29:37;3.13;;;1.90;;
18159;SDS011;9205;52.032;4.314;2023-04-03T06:32:05;3.53;;;1.60;;
18159;SDS011;9205;52.032;4.314;2023-04-03T06:34:32;3.33;;;2.03;;
18159;SDS011;9205;52.032;4.314;2023-04-03T06:37:00;2.33;;;1.60;;
18159;SDS011;9205;52.032;4.314;2023-04-03T06:39:29;3.33;;;1.83;;
18159;SDS011;9205;52.032;4.314;2023-04-03T06:41:56;4.80;;;1.80;;
18159;SDS011;9205;52.032;4.314;2023-04-03T06:44:34;5.97;;;1.73;;
18159;SDS011;9205;52.032;4.314;2023-04-03T06:47:02;2.30;;;1.60;;
18159;SDS011;9205;52.032;4.314;2023-04-03T06:49:29;5.23;;;1.80;;
18159;SDS011;9205;52.032;4.314;2023-04-03T06:51:57;4.03;;;2.00;;
18159;SDS011;9205;52.032;4.314;2023-04-03T06:54:24;5.53;;;1.63;;
18159;SDS011;9205;52.032;4.314;2023-04-03T06:56:53;1.70;;;1.27;;
18159;SDS011;9205;52.032;4.314;2023-04-03T06:59:20;3.17;;;2.40;;
18159;SDS011;9205;52.032;4.314;2023-04-03T07:01:47;3.10;;;1.90;;
18159;SDS011;9205;52.032;4.314;2023-04-03T07:04:15;7.00;;;1.90;;
18159;SDS011;9205;52.032;4.314;2023-04-03T07:06:42;2.03;;;1.80;;
18159;SDS011;9205;52.032;4.314;2023-04-03T07:09:09;1.67;;;1.40;;
18159;SDS011;9205;52.032;4.314;2023-04-03T07:11:37;3.10;;;1.60;;
18159;SDS011;9205;52.032;4.314;2023-04-03T07:14:06;4.27;;;1.60;;
18159;SDS011;9205;52.032;4.314;2023-04-03T07:16:33;3.97;;;1.97;;
18159;SDS011;9205;52.032;4.314;2023-04-03T07:19:01;2.73;;;1.80;;
18159;SDS011;9205;52.032;4.314;2023-04-03T07:21:29;7.23;;;1.90;;
18159;SDS011;9205;52.032;4.314;2023-04-03T07:23:56;2.87;;;1.90;;
18159;SDS011;9205;52.032;4.314;2023-04-03T07:26:23;2.93;;;2.03;;
18159;SDS011;9205;52.032;4.314;2023-04-03T07:28:51;3.40;;;1.67;;
18159;SDS011;9205;52.032;4.314;2023-04-03T07:31:19;4.77;;;1.90;;
18159;SDS011;9205;52.032;4.314;2023-04-03T07:33:46;3.53;;;1.77;;
18159;SDS011;9205;52.032;4.314;2023-04-03T07:36:15;4.10;;;1.63;;
18159;SDS011;9205;52.032;4.314;2023-04-03T07:38:45;2.30;;;1.60;;
18159;SDS011;9205;52.032;4.314;2023-04-03T07:41:13;5.70;;;1.70;;
18159;SDS011;9205;52.032;4.314;2023-04-03T07:43:43;2.70;;;1.33;;
18159;SDS011;9205;52.032;4.314;2023-04-03T07:46:11;2.87;;;1.43;;
18159;SDS011;9205;52.032;4.314;2023-04-03T07:48:40;6.63;;;2.07;;
18159;SDS011;9205;52.032;4.314;2023-04-03T07:51:07;4.43;;;2.17;;
18159;SDS011;9205;52.032;4.314;2023-04-03T07:53:36;4.03;;;1.80;;
18159;SDS011;9205;52.032;4.314;2023-04-03T07:56:03;2.50;;;1.47;;
18159;SDS011;9205;52.032;4.314;2023-04-03T07:58:31;2.90;;;1.77;;
18159;SDS011;9205;52.032;4.314;2023-04-03T08:00:59;5.23;;;1.80;;
18159;SDS011;9205;52.032;4.314;2023-04-03T08:03:26;3.00;;;1.80;;
18159;SDS011;9205;52.032;4.314;2023-04-03T08:06:00;8.13;;;1.63;;
18159;SDS011;9205;52.032;4.314;2023-04-03T08:08:33;8.67;;;1.70;;
18159;SDS011;9205;52.032;4.314;2023-04-03T08:11:01;2.27;;;1.40;;
18159;SDS011;9205;52.032;4.314;2023-04-03T08:13:30;1.37;;;1.23;;
18159;SDS011;9205;52.032;4.314;2023-04-03T08:16:06;1.97;;;1.17;;
18159;SDS011;9205;52.032;4.314;2023-04-03T08:18:36;3.93;;;1.37;;
18159;SDS011;9205;52.032;4.314;2023-04-03T08:21:09;3.13;;;1.50;;
18159;SDS011;9205;52.032;4.314;2023-04-03T08:23:38;2.93;;;1.20;;
18159;SDS011;9205;52.032;4.314;2023-04-03T08:26:08;1.83;;;1.20;;
18159;SDS011;9205;52.032;4.314;2023-04-03T08:28:37;3.27;;;1.40;;
18159;SDS011;9205;52.032;4.314;2023-04-03T08:31:05;1.50;;;1.20;;
18159;SDS011;9205;52.032;4.314;2023-04-03T08:33:37;1.30;;;1.13;;
18159;SDS011;9205;52.032;4.314;2023-04-03T08:36:06;2.57;;;1.10;;
18159;SDS011;9205;52.032;4.314;2023-04-03T08:38:42;2.03;;;1.47;;
18159;SDS011;9205;52.032;4.314;2023-04-03T08:41:11;2.27;;;1.30;;
18159;SDS011;9205;52.032;4.314;2023-04-03T08:43:49;2.40;;;1.30;;
18159;SDS011;9205;52.032;4.314;2023-04-03T08:46:37;2.33;;;1.20;;
18159;SDS011;9205;52.032;4.314;2023-04-03T08:49:22;3.07;;;1.40;;
18159;SDS011;9205;52.032;4.314;2023-04-03T08:51:58;3.17;;;1.43;;
18159;SDS011;9205;52.032;4.314;2023-04-03T08:54:33;3.53;;;1.00;;
18159;SDS011;9205;52.032;4.314;2023-04-03T08:57:09;3.53;;;1.50;;
18159;SDS011;9205;52.032;4.314;2023-04-03T08:59:38;3.10;;;1.30;;
18159;SDS011;9205;52.032;4.314;2023-04-03T09:02:14;3.60;;;1.20;;
18159;SDS011;9205;52.032;4.314;2023-04-03T09:04:54;8.13;;;1.83;;
18159;SDS011;9205;52.032;4.314;2023-04-03T09:07:25;1.43;;;0.93;;
18159;SDS011;9205;52.032;4.314;2023-04-03T09:10:03;2.00;;;1.10;;
18159;SDS011;9205;52.032;4.314;2023-04-03T09:12:33;5.70;;;1.40;;
18159;SDS011;9205;52.032;4.314;2023-04-03T09:15:07;1.50;;;1.10;;
18159;SDS011;9205;52.032;4.314;2023-04-03T09:17:46;1.00;;;0.90;;
18159;SDS011;9205;52.032;4.314;2023-04-03T09:20:27;2.50;;;1.27;;
18159;SDS011;9205;52.032;4.314;2023-04-03T09:23:15;2.97;;;1.30;;
18159;SDS011;9205;52.032;4.314;2023-04-03T09:25:51;1.83;;;0.97;;
18159;SDS011;9205;52.032;4.314;2023-04-03T09:28:29;3.73;;;1.40;;
18159;SDS011;9205;52.032;4.314;2023-04-03T09:30:59;1.80;;;0.87;;
18159;SDS011;9205;52.032;4.314;2023-04-03T09:33:28;2.27;;;1.00;;
18159;SDS011;9205;52.032;4.314;2023-04-03T09:35:56;2.20;;;1.10;;
18159;SDS011;9205;52.032;4.314;2023-04-03T09:38:25;2.43;;;1.33;;
18159;SDS011;9205;52.032;4.314;2023-04-03T09:41:02;2.40;;;1.07;;
18159;SDS011;9205;52.032;4.314;2023-04-03T09:43:33;2.97;;;1.10;;
18159;SDS011;9205;52.032;4.314;2023-04-03T09:46:17;2.83;;;0.90;;
18159;SDS011;9205;52.032;4.314;2023-04-03T09:48:55;1.93;;;1.03;;
18159;SDS011;9205;52.032;4.314;2023-04-03T09:51:25;1.10;;;0.90;;
18159;SDS011;9205;52.032;4.314;2023-04-03T09:53:55;1.50;;;1.00;;
18159;SDS011;9205;52.032;4.314;2023-04-03T09:56:24;1.20;;;1.10;;
18159;SDS011;9205;52.032;4.314;2023-04-03T09:59:08;1.10;;;0.80;;
18159;SDS011;9205;52.032;4.314;2023-04-03T10:01:42;1.97;;;1.00;;
18159;SDS011;9205;52.032;4.314;2023-04-03T10:04:27;1.07;;;0.90;;
18159;SDS011;9205;52.032;4.314;2023-04-03T10:10:14;0.83;;;0.83;;
18159;SDS011;9205;52.032;4.314;2023-04-03T10:12:45;0.80;;;0.70;;
18159;SDS011;9205;52.032;4.314;2023-04-03T10:15:13;1.03;;;0.80;;
18159;SDS011;9205;52.032;4.314;2023-04-03T10:17:48;1.97;;;0.70;;
18159;SDS011;9205;52.032;4.314;2023-04-03T10:20:26;0.97;;;0.80;;
18159;SDS011;9205;52.032;4.314;2023-04-03T10:23:05;1.40;;;1.00;;
18159;SDS011;9205;52.032;4.314;2023-04-03T10:25:49;0.70;;;0.70;;
18159;SDS011;9205;52.032;4.314;2023-04-03T10:28:33;2.60;;;0.90;;
18159;SDS011;9205;52.032;4.314;2023-04-03T10:31:14;2.00;;;0.93;;
18159;SDS011;9205;52.032;4.314;2023-04-03T10:33:52;2.20;;;0.80;;
18159;SDS011;9205;52.032;4.314;2023-04-03T10:36:32;1.90;;;0.80;;
18159;SDS011;9205;52.032;4.314;2023-04-03T10:39:12;1.67;;;0.80;;
18159;SDS011;9205;52.032;4.314;2023-04-03T10:42:00;1.03;;;0.93;;
18159;SDS011;9205;52.032;4.314;2023-04-03T10:44:36;1.80;;;1.00;;
18159;SDS011;9205;52.032;4.314;2023-04-03T10:47:24;1.03;;;0.77;;
18159;SDS011;9205;52.032;4.314;2023-04-03T10:50:02;2.73;;;0.90;;
18159;SDS011;9205;52.032;4.314;2023-04-03T10:52:52;1.63;;;0.80;;
18159;SDS011;9205;52.032;4.314;2023-04-03T10:55:30;2.03;;;0.80;;
18159;SDS011;9205;52.032;4.314;2023-04-03T10:58:05;1.67;;;0.90;;
18159;SDS011;9205;52.032;4.314;2023-04-03T11:00:45;2.70;;;1.00;;
18159;SDS011;9205;52.032;4.314;2023-04-03T11:03:16;1.60;;;0.90;;
18159;SDS011;9205;52.032;4.314;2023-04-03T11:05:59;2.40;;;1.00;;
18159;SDS011;9205;52.032;4.314;2023-04-03T11:08:33;3.03;;;1.43;;
18159;SDS011;9205;52.032;4.314;2023-04-03T11:11:06;2.07;;;1.00;;
18159;SDS011;9205;52.032;4.314;2023-04-03T11:13:43;1.83;;;0.90;;
18159;SDS011;9205;52.032;4.314;2023-04-03T11:16:21;1.10;;;0.80;;
18159;SDS011;9205;52.032;4.314;2023-04-03T11:18:54;1.17;;;0.80;;
18159;SDS011;9205;52.032;4.314;2023-04-03T11:21:27;2.93;;;0.83;;
18159;SDS011;9205;52.032;4.314;2023-04-03T11:24:01;1.07;;;0.83;;
18159;SDS011;9205;52.032;4.314;2023-04-03T11:26:38;1.30;;;0.90;;
18159;SDS011;9205;52.032;4.314;2023-04-03T11:29:11;1.07;;;0.87;;
18159;SDS011;9205;52.032;4.314;2023-04-03T11:31:53;0.70;;;0.70;;
18159;SDS011;9205;52.032;4.314;2023-04-03T11:34:36;2.10;;;1.07;;
18159;SDS011;9205;52.032;4.314;2023-04-03T11:37:11;1.27;;;0.80;;
18159;SDS011;9205;52.032;4.314;2023-04-03T11:39:51;1.03;;;0.70;;
18159;SDS011;9205;52.032;4.314;2023-04-03T11:42:26;0.80;;;0.67;;
18159;SDS011;9205;52.032;4.314;2023-04-03T11:51:44;2.17;;;0.83;;
18159;SDS011;9205;52.032;4.314;2023-04-03T12:00:48;1.10;;;0.70;;
18159;SDS011;9205;52.032;4.314;2023-04-03T12:12:55;2.10;;;0.80;;
18159;SDS011;9205;52.032;4.314;2023-04-03T12:24:50;0.87;;;0.73;;
18159;SDS011;9205;52.032;4.314;2023-04-03T12:27:23;3.40;;;0.70;;
18159;SDS011;9205;52.032;4.314;2023-04-03T12:32:54;0.73;;;0.60;;
18159;SDS011;9205;52.032;4.314;2023-04-03T12:35:49;0.80;;;0.60;;
18159;SDS011;9205;52.032;4.314;2023-04-03T12:38:37;0.67;;;0.60;;
18159;SDS011;9205;52.032;4.314;2023-04-03T12:41:32;0.60;;;0.60;;
18159;SDS011;9205;52.032;4.314;2023-04-03T12:47:13;0.50;;;0.50;;
18159;SDS011;9205;52.032;4.314;2023-04-03T12:49:52;0.90;;;0.80;;
18159;SDS011;9205;52.032;4.314;2023-04-03T12:52:24;0.80;;;0.80;;
18159;SDS011;9205;52.032;4.314;2023-04-03T12:55:11;0.83;;;0.70;;
18159;SDS011;9205;52.032;4.314;2023-04-03T12:57:42;0.73;;;0.70;;
18159;SDS011;9205;52.032;4.314;2023-04-03T13:00:20;1.30;;;0.80;;
18159;SDS011;9205;52.032;4.314;2023-04-03T13:02:59;0.97;;;0.70;;
18159;SDS011;9205;52.032;4.314;2023-04-03T13:05:30;0.70;;;0.70;;
18159;SDS011;9205;52.032;4.314;2023-04-03T13:08:00;0.67;;;0.60;;
18159;SDS011;9205;52.032;4.314;2023-04-03T13:10:31;1.00;;;0.60;;
18159;SDS011;9205;52.032;4.314;2023-04-03T13:13:17;1.37;;;0.70;;
18159;SDS011;9205;52.032;4.314;2023-04-03T13:15:45;1.47;;;0.77;;
18159;SDS011;9205;52.032;4.314;2023-04-03T13:18:26;0.60;;;0.60;;
18159;SDS011;9205;52.032;4.314;2023-04-03T13:20:58;0.90;;;0.67;;
18159;SDS011;9205;52.032;4.314;2023-04-03T13:23:30;1.53;;;0.87;;
18159;SDS011;9205;52.032;4.314;2023-04-03T13:26:02;1.20;;;0.93;;
18159;SDS011;9205;52.032;4.314;2023-04-03T13:28:32;1.57;;;0.83;;
18159;SDS011;9205;52.032;4.314;2023-04-03T13:31:06;1.47;;;0.70;;
18159;SDS011;9205;52.032;4.314;2023-04-03T13:33:49;0.63;;;0.63;;
18159;SDS011;9205;52.032;4.314;2023-04-03T13:36:25;1.30;;;0.73;;
18159;SDS011;9205;52.032;4.314;2023-04-03T13:38:58;0.80;;;0.80;;
18159;SDS011;9205;52.032;4.314;2023-04-03T13:41:30;1.30;;;0.70;;
18159;SDS011;9205;52.032;4.314;2023-04-03T13:44:14;1.60;;;0.87;;
18159;SDS011;9205;52.032;4.314;2023-04-03T13:46:54;1.23;;;0.73;;
18159;SDS011;9205;52.032;4.314;2023-04-03T13:49:28;1.07;;;0.83;;
18159;SDS011;9205;52.032;4.314;2023-04-03T13:52:00;1.37;;;0.90;;
18159;SDS011;9205;52.032;4.314;2023-04-03T13:54:31;1.33;;;0.90;;
18159;SDS011;9205;52.032;4.314;2023-04-03T13:57:02;1.00;;;0.87;;
18159;SDS011;9205;52.032;4.314;2023-04-03T13:59:39;1.43;;;0.80;;
18159;SDS011;9205;52.032;4.314;2023-04-03T14:02:10;1.90;;;0.73;;
18159;SDS011;9205;52.032;4.314;2023-04-03T14:04:45;1.97;;;0.90;;
18159;SDS011;9205;52.032;4.314;2023-04-03T14:07:22;2.27;;;1.00;;
18159;SDS011;9205;52.032;4.314;2023-04-03T14:09:51;0.80;;;0.80;;
18159;SDS011;9205;52.032;4.314;2023-04-03T14:12:20;1.10;;;0.87;;
18159;SDS011;9205;52.032;4.314;2023-04-03T14:14:53;1.90;;;1.07;;
18159;SDS011;9205;52.032;4.314;2023-04-03T14:17:23;1.80;;;0.63;;
18159;SDS011;9205;52.032;4.314;2023-04-03T14:19:53;1.30;;;0.90;;
18159;SDS011;9205;52.032;4.314;2023-04-03T14:22:24;1.67;;;0.90;;
18159;SDS011;9205;52.032;4.314;2023-04-03T14:24:54;1.00;;;0.80;;
18159;SDS011;9205;52.032;4.314;2023-04-03T14:27:23;3.60;;;0.90;;
18159;SDS011;9205;52.032;4.314;2023-04-03T14:29:54;1.43;;;0.90;;
18159;SDS011;9205;52.032;4.314;2023-04-03T14:32:24;1.80;;;1.00;;
18159;SDS011;9205;52.032;4.314;2023-04-03T14:34:53;2.10;;;1.00;;
18159;SDS011;9205;52.032;4.314;2023-04-03T14:37:24;3.93;;;0.90;;
18159;SDS011;9205;52.032;4.314;2023-04-03T14:39:55;1.13;;;0.80;;
18159;SDS011;9205;52.032;4.314;2023-04-03T14:42:27;2.50;;;0.93;;
18159;SDS011;9205;52.032;4.314;2023-04-03T14:44:57;2.27;;;1.00;;
18159;SDS011;9205;52.032;4.314;2023-04-03T14:47:26;1.00;;;0.90;;
18159;SDS011;9205;52.032;4.314;2023-04-03T14:49:55;1.63;;;0.90;;
18159;SDS011;9205;52.032;4.314;2023-04-03T14:52:26;2.07;;;1.07;;
18159;SDS011;9205;52.032;4.314;2023-04-03T14:54:56;1.03;;;0.80;;
18159;SDS011;9205;52.032;4.314;2023-04-03T14:57:25;2.67;;;0.80;;
18159;SDS011;9205;52.032;4.314;2023-04-03T14:59:56;1.70;;;1.20;;
18159;SDS011;9205;52.032;4.314;2023-04-03T15:02:27;2.53;;;1.30;;
18159;SDS011;9205;52.032;4.314;2023-04-03T15:04:57;1.63;;;1.00;;
18159;SDS011;9205;52.032;4.314;2023-04-03T15:07:30;2.20;;;1.13;;
18159;SDS011;9205;52.032;4.314;2023-04-03T15:10:03;1.23;;;0.83;;
18159;SDS011;9205;52.032;4.314;2023-04-03T15:12:42;1.43;;;0.93;;
18159;SDS011;9205;52.032;4.314;2023-04-03T15:15:10;1.37;;;0.97;;
18159;SDS011;9205;52.032;4.314;2023-04-03T15:17:39;1.37;;;1.03;;
18159;SDS011;9205;52.032;4.314;2023-04-03T15:20:11;1.07;;;0.87;;
18159;SDS011;9205;52.032;4.314;2023-04-03T15:22:42;1.30;;;0.93;;
18159;SDS011;9205;52.032;4.314;2023-04-03T15:25:09;2.17;;;1.10;;
18159;SDS011;9205;52.032;4.314;2023-04-03T15:27:37;1.27;;;0.80;;
18159;SDS011;9205;52.032;4.314;2023-04-03T15:30:07;0.70;;;0.70;;
18159;SDS011;9205;52.032;4.314;2023-04-03T15:32:40;1.30;;;0.90;;
18159;SDS011;9205;52.032;4.314;2023-04-03T15:35:08;0.80;;;0.80;;
18159;SDS011;9205;52.032;4.314;2023-04-03T15:37:35;3.00;;;0.90;;
18159;SDS011;9205;52.032;4.314;2023-04-03T15:40:05;1.80;;;1.23;;
18159;SDS011;9205;52.032;4.314;2023-04-03T15:42:34;2.40;;;1.10;;
18159;SDS011;9205;52.032;4.314;2023-04-03T15:45:01;1.47;;;1.00;;
18159;SDS011;9205;52.032;4.314;2023-04-03T15:47:29;1.50;;;0.80;;
18159;SDS011;9205;52.032;4.314;2023-04-03T15:49:56;2.30;;;1.00;;
18159;SDS011;9205;52.032;4.314;2023-04-03T15:52:24;1.03;;;0.93;;
18159;SDS011;9205;52.032;4.314;2023-04-03T15:54:51;0.97;;;0.90;;
18159;SDS011;9205;52.032;4.314;2023-04-03T15:57:20;1.33;;;1.00;;
18159;SDS011;9205;52.032;4.314;2023-04-03T15:59:51;1.60;;;0.93;;
18159;SDS011;9205;52.032;4.314;2023-04-03T16:02:18;1.53;;;0.90;;
18159;SDS011;9205;52.032;4.314;2023-04-03T16:04:46;1.53;;;1.00;;
18159;SDS011;9205;52.032;4.314;2023-04-03T16:07:13;1.10;;;1.00;;